Weather at Åre Östersund Airport

Public forecast

Using degrees Celsius for public forecast. Weather courtesy of forecast.io.

Current aviation weather report (METAR) for Åre Östersund Airport

Retrieved 2021/01/18 22:20 UTC (23 minutes ago):

ESNZ 182220Z AUTO 27001KT 0500 R12/P1500N R30/P1500N FZFG VV003 M21/M24 Q1004

Closest aviation forecast (TAF) to Åre Östersund Airport

Forecast is more than 12 hours old.

Closest forecast is Kramfors Sollefteå Airport, 89.1 nm (165.1 km) E. Retrieved 2015/10/08 12:00 UTC (5 years ago):

TAF ESNK 081130Z 0812/0824 18005KT CAVOK PROB40 0820/0824 4000 BR